Time;durP1;ratioP1;P1;durP2;ratioP2;P2;SDS_P1;SDS_P2;PMS_P1;PMS_P2;Temp;Humidity;BMP_temperature;BMP_pressure;BME280_temperature;BME280_humidity;BME280_pressure;Samples;Min_cycle;Max_cycle;Signal;HPM_P1;HPM_P2
2023/09/30 00:00:58;;;;;;;17.23;4.32;;;;;;;;;;4873420;29;20048;-79
2023/09/30 00:03:24;;;;;;;10.98;3.03;;;;;;;;;;4897723;29;20041;-79
2023/09/30 00:05:50;;;;;;;10.80;3.40;;;;;;;;;;4895791;29;20334;-80
2023/09/30 00:08:16;;;;;;;13.77;3.80;;;;;;;;;;4894793;29;20080;-79
2023/09/30 00:10:42;;;;;;;16.63;3.95;;;;;;;;;;4895594;29;20032;-79
2023/09/30 00:13:08;;;;;;;8.63;3.05;;;;;;;;;;4894406;29;20395;-79
2023/09/30 00:15:35;;;;;;;13.68;3.00;;;;;;;;;;4878343;29;20032;-79
2023/09/30 00:18:01;;;;;;;12.95;3.50;;;;;;;;;;4894806;29;20040;-79
2023/09/30 00:20:28;;;;;;;17.10;3.72;;;;;;;;;;4896621;29;20033;-79
2023/09/30 00:22:54;;;;;;;11.82;3.60;;;;;;;;;;4884141;29;20029;-78
2023/09/30 00:25:20;;;;;;;10.98;2.90;;;;;;;;;;4884528;29;20056;-78
2023/09/30 00:27:47;;;;;;;10.10;3.08;;;;;;;;;;4895881;29;20076;-79
2023/09/30 00:30:13;;;;;;;11.32;4.45;;;;;;;;;;4895940;29;20064;-79
2023/09/30 00:32:39;;;;;;;8.57;3.20;;;;;;;;;;4896324;29;20051;-78
2023/09/30 00:35:11;;;;;;;20.15;4.22;;;;;;;;;;4893038;29;20481;-78
2023/09/30 00:37:37;;;;;;;13.30;4.27;;;;;;;;;;4895032;29;20029;-79
2023/09/30 00:40:03;;;;;;;10.77;3.15;;;;;;;;;;4885407;29;20036;-79
2023/09/30 00:42:29;;;;;;;15.35;4.07;;;;;;;;;;4894313;29;20463;-79
2023/09/30 00:44:55;;;;;;;9.30;2.92;;;;;;;;;;4895950;29;20071;-78
2023/09/30 00:47:21;;;;;;;11.57;3.55;;;;;;;;;;4890344;29;20184;-78
2023/09/30 00:49:47;;;;;;;22.55;4.05;;;;;;;;;;4896825;29;20519;-78
2023/09/30 00:52:13;;;;;;;11.52;3.22;;;;;;;;;;4892076;29;20120;-78
2023/09/30 00:54:40;;;;;;;9.43;3.15;;;;;;;;;;4887528;29;20139;-78
2023/09/30 00:57:06;;;;;;;16.08;3.20;;;;;;;;;;4890464;29;20052;-78
2023/09/30 00:59:32;;;;;;;21.65;3.67;;;;;;;;;;4895098;29;20060;-77
2023/09/30 01:02:00;;;;;;;13.98;3.53;;;;;;;;;;4891117;29;20110;-79
2023/09/30 01:04:27;;;;;;;19.63;3.92;;;;;;;;;;4893733;29;20032;-78
2023/09/30 01:06:53;;;;;;;13.80;3.33;;;;;;;;;;4890301;29;20475;-78
2023/09/30 01:09:20;;;;;;;9.43;2.50;;;;;;;;;;4894953;29;20076;-78
2023/09/30 01:11:47;;;;;;;11.63;2.78;;;;;;;;;;4894152;29;20029;-79
2023/09/30 01:14:26;;;;;;;15.60;3.45;;;;;;;;;;4893455;29;20088;-78
2023/09/30 01:16:52;;;;;;;13.63;3.80;;;;;;;;;;4894985;29;20041;-78
2023/09/30 01:19:18;;;;;;;15.40;3.15;;;;;;;;;;4895483;29;20364;-78
2023/09/30 01:21:48;;;;;;;6.90;2.42;;;;;;;;;;4894967;29;20037;-78
2023/09/30 01:24:14;;;;;;;12.55;2.85;;;;;;;;;;4890917;29;20514;-77
2023/09/30 01:26:42;;;;;;;14.85;2.65;;;;;;;;;;4893649;29;20144;-77
2023/09/30 01:29:11;;;;;;;9.13;2.15;;;;;;;;;;4876059;29;20395;-78
2023/09/30 01:31:37;;;;;;;11.88;2.60;;;;;;;;;;4895599;29;20443;-78
2023/09/30 01:34:03;;;;;;;16.27;3.33;;;;;;;;;;4893897;29;20028;-79
2023/09/30 01:36:29;;;;;;;12.32;2.50;;;;;;;;;;4895424;29;20049;-78
2023/09/30 01:38:55;;;;;;;16.95;5.70;;;;;;;;;;4893384;29;20372;-83
2023/09/30 01:41:21;;;;;;;10.68;3.20;;;;;;;;;;4888642;29;20428;-83
2023/09/30 01:43:48;;;;;;;12.07;2.85;;;;;;;;;;4894504;29;20498;-83
2023/09/30 01:46:14;;;;;;;18.80;4.03;;;;;;;;;;4890690;29;20063;-79
2023/09/30 01:48:40;;;;;;;9.57;2.53;;;;;;;;;;4895087;29;20076;-80
2023/09/30 01:51:06;;;;;;;9.23;2.22;;;;;;;;;;4875131;29;20037;-80
2023/09/30 01:53:33;;;;;;;12.68;3.58;;;;;;;;;;4892669;29;20108;-80
2023/09/30 01:55:59;;;;;;;11.45;2.42;;;;;;;;;;4894055;29;20435;-79
2023/09/30 01:58:25;;;;;;;17.20;2.80;;;;;;;;;;4896743;29;20036;-79
2023/09/30 02:00:52;;;;;;;10.70;2.65;;;;;;;;;;4898639;29;20045;-79
2023/09/30 02:03:18;;;;;;;13.82;3.08;;;;;;;;;;4894277;29;20048;-79
2023/09/30 02:05:44;;;;;;;10.90;2.75;;;;;;;;;;4899526;29;20048;-79
2023/09/30 02:08:10;;;;;;;16.33;3.08;;;;;;;;;;4895655;29;20040;-79
2023/09/30 02:10:36;;;;;;;11.02;2.85;;;;;;;;;;4898874;29;20033;-79
2023/09/30 02:13:05;;;;;;;20.25;3.55;;;;;;;;;;4892003;29;20029;-78
2023/09/30 02:15:32;;;;;;;9.95;2.80;;;;;;;;;;4897215;29;20028;-79
2023/09/30 02:18:00;;;;;;;15.07;3.10;;;;;;;;;;4898305;29;20044;-79
2023/09/30 02:20:30;;;;;;;14.02;2.80;;;;;;;;;;4896794;29;20035;-79
2023/09/30 02:22:56;;;;;;;9.70;2.53;;;;;;;;;;4893947;29;20033;-79
2023/09/30 02:25:22;;;;;;;13.48;3.53;;;;;;;;;;4894743;29;20037;-78
2023/09/30 02:27:49;;;;;;;11.65;2.88;;;;;;;;;;4897795;29;20383;-79
2023/09/30 02:30:16;;;;;;;15.23;2.92;;;;;;;;;;4898192;29;20024;-78
2023/09/30 02:32:43;;;;;;;10.63;2.72;;;;;;;;;;4898570;29;20041;-78
2023/09/30 02:35:12;;;;;;;12.50;2.63;;;;;;;;;;4889952;29;20037;-79
2023/09/30 02:37:38;;;;;;;16.38;3.33;;;;;;;;;;4888023;29;20459;-79
2023/09/30 02:40:05;;;;;;;12.75;2.85;;;;;;;;;;4873349;29;20487;-78
2023/09/30 02:42:32;;;;;;;12.57;2.50;;;;;;;;;;4894719;29;20143;-79
2023/09/30 02:45:02;;;;;;;10.43;2.42;;;;;;;;;;4897568;29;20555;-78
2023/09/30 02:47:28;;;;;;;10.45;3.08;;;;;;;;;;4875946;29;20039;-78
2023/09/30 02:49:56;;;;;;;17.13;3.10;;;;;;;;;;4880706;29;20127;-78
2023/09/30 02:52:22;;;;;;;12.85;3.33;;;;;;;;;;4895144;29;20056;-78
2023/09/30 02:54:49;;;;;;;13.63;2.90;;;;;;;;;;4898104;29;20409;-79
2023/09/30 02:57:15;;;;;;;8.57;2.40;;;;;;;;;;4897131;29;20039;-78
2023/09/30 02:59:42;;;;;;;12.70;2.58;;;;;;;;;;4897655;29;20056;-78
2023/09/30 03:02:08;;;;;;;8.43;2.80;;;;;;;;;;4880767;29;20368;-79
2023/09/30 03:04:34;;;;;;;8.63;2.97;;;;;;;;;;4897706;29;20051;-79
2023/09/30 03:07:00;;;;;;;11.95;3.38;;;;;;;;;;4896468;29;20044;-79
2023/09/30 03:09:26;;;;;;;12.48;2.80;;;;;;;;;;4871441;29;20041;-79
2023/09/30 03:11:52;;;;;;;13.20;2.78;;;;;;;;;;4894148;29;20088;-79
2023/09/30 03:14:18;;;;;;;10.00;2.70;;;;;;;;;;4891449;29;20033;-79
2023/09/30 03:16:44;;;;;;;14.00;3.13;;;;;;;;;;4895204;29;20087;-78
2023/09/30 03:19:11;;;;;;;9.95;2.53;;;;;;;;;;4897525;29;20037;-78
2023/09/30 03:21:37;;;;;;;10.25;3.55;;;;;;;;;;4895800;29;20029;-79
2023/09/30 03:24:04;;;;;;;11.52;2.38;;;;;;;;;;4897258;29;20033;-78
2023/09/30 03:26:30;;;;;;;10.90;2.80;;;;;;;;;;4896874;29;20455;-79
2023/09/30 03:28:56;;;;;;;9.13;2.13;;;;;;;;;;4895768;29;20484;-79
2023/09/30 03:31:22;;;;;;;11.02;2.70;;;;;;;;;;4889558;29;20431;-79
2023/09/30 03:33:49;;;;;;;15.63;3.00;;;;;;;;;;4897674;29;20123;-80
2023/09/30 03:36:15;;;;;;;10.10;2.40;;;;;;;;;;4895135;29;20077;-79
2023/09/30 03:38:41;;;;;;;12.20;2.65;;;;;;;;;;4897639;29;20037;-79
2023/09/30 03:41:08;;;;;;;13.48;2.63;;;;;;;;;;4896081;29;20383;-79
2023/09/30 03:43:36;;;;;;;11.50;2.50;;;;;;;;;;4892582;29;20501;-79
2023/09/30 03:46:02;;;;;;;7.97;3.22;;;;;;;;;;4874306;29;20032;-79
2023/09/30 03:48:28;;;;;;;7.18;3.28;;;;;;;;;;4878393;29;20045;-79
2023/09/30 03:50:54;;;;;;;10.23;2.60;;;;;;;;;;4895170;29;20041;-79
2023/09/30 03:53:21;;;;;;;14.80;3.63;;;;;;;;;;4892072;29;20037;-79
2023/09/30 03:55:47;;;;;;;12.13;3.20;;;;;;;;;;4875210;29;20406;-79
2023/09/30 03:58:13;;;;;;;14.32;3.08;;;;;;;;;;4878419;29;20378;-79
2023/09/30 04:00:39;;;;;;;15.10;3.25;;;;;;;;;;4896679;29;20040;-79
2023/09/30 04:03:06;;;;;;;10.02;3.25;;;;;;;;;;4892318;29;20116;-79
2023/09/30 04:05:36;;;;;;;12.50;4.82;;;;;;;;;;4896557;29;20139;-79
2023/09/30 04:08:02;;;;;;;14.48;4.47;;;;;;;;;;4886715;29;20033;-79
2023/09/30 04:10:30;;;;;;;16.00;4.40;;;;;;;;;;4895441;29;20068;-79
2023/09/30 04:12:56;;;;;;;10.88;3.90;;;;;;;;;;4896786;29;20065;-79
2023/09/30 04:15:22;;;;;;;15.52;5.13;;;;;;;;;;4894144;29;20047;-79
2023/09/30 04:17:52;;;;;;;21.00;5.47;;;;;;;;;;4895824;29;20045;-79
2023/09/30 04:20:23;;;;;;;17.63;4.15;;;;;;;;;;4895342;29;20518;-79
2023/09/30 04:22:49;;;;;;;10.00;4.20;;;;;;;;;;4895771;29;20156;-79
2023/09/30 04:25:19;;;;;;;15.25;4.40;;;;;;;;;;4893253;29;20040;-78
2023/09/30 04:27:47;;;;;;;16.05;6.05;;;;;;;;;;4896401;29;20055;-78
2023/09/30 04:30:15;;;;;;;12.38;4.18;;;;;;;;;;4895447;29;20025;-78
2023/09/30 04:32:41;;;;;;;17.48;5.20;;;;;;;;;;4893259;29;20037;-78
2023/09/30 04:35:10;;;;;;;20.02;5.72;;;;;;;;;;4878869;29;20075;-79
2023/09/30 04:37:37;;;;;;;15.48;5.82;;;;;;;;;;4894688;29;20107;-79
2023/09/30 04:40:09;;;;;;;21.13;6.25;;;;;;;;;;4895940;29;20314;-79
2023/09/30 04:42:36;;;;;;;13.93;5.88;;;;;;;;;;4893781;29;20407;-80
2023/09/30 04:45:03;;;;;;;19.58;5.82;;;;;;;;;;4894062;29;20059;-79
2023/09/30 04:47:29;;;;;;;19.35;6.20;;;;;;;;;;4892126;29;20036;-80
2023/09/30 04:49:58;;;;;;;11.98;4.82;;;;;;;;;;4895492;29;20041;-79
2023/09/30 04:52:27;;;;;;;20.60;6.18;;;;;;;;;;4891761;29;20040;-78
2023/09/30 04:54:53;;;;;;;16.75;6.45;;;;;;;;;;4870619;29;20521;-78
2023/09/30 04:57:21;;;;;;;13.48;5.88;;;;;;;;;;4883172;29;20041;-78
2023/09/30 04:59:47;;;;;;;21.35;6.72;;;;;;;;;;4893306;29;20035;-78
2023/09/30 05:02:15;;;;;;;18.17;7.00;;;;;;;;;;4872464;29;20047;-77
2023/09/30 05:04:42;;;;;;;18.20;6.40;;;;;;;;;;4890161;29;20402;-77
2023/09/30 05:07:08;;;;;;;25.20;9.57;;;;;;;;;;4890787;29;20029;-78
2023/09/30 05:09:34;;;;;;;19.33;6.40;;;;;;;;;;4894563;29;20037;-83
2023/09/30 05:12:00;;;;;;;16.10;6.20;;;;;;;;;;4901689;29;20490;-81
2023/09/30 05:14:28;;;;;;;17.60;6.65;;;;;;;;;;4897713;29;20045;-79
2023/09/30 05:16:56;;;;;;;17.38;7.00;;;;;;;;;;4886317;29;20032;-77
2023/09/30 05:19:22;;;;;;;13.23;6.03;;;;;;;;;;4878826;29;20025;-78
2023/09/30 05:21:48;;;;;;;20.52;6.55;;;;;;;;;;4878755;29;20196;-77
2023/09/30 05:24:14;;;;;;;18.08;5.90;;;;;;;;;;4896575;29;20040;-78
2023/09/30 05:26:40;;;;;;;19.35;6.45;;;;;;;;;;4879089;29;20044;-77
2023/09/30 05:29:07;;;;;;;21.15;6.57;;;;;;;;;;4895248;29;20036;-77
2023/09/30 05:31:33;;;;;;;16.60;6.63;;;;;;;;;;4895006;29;20087;-76
2023/09/30 05:33:59;;;;;;;13.23;6.25;;;;;;;;;;4894622;29;20028;-77
2023/09/30 05:36:25;;;;;;;20.15;6.22;;;;;;;;;;4889981;29;20033;-77
2023/09/30 05:38:51;;;;;;;14.38;6.78;;;;;;;;;;4889337;29;20052;-80
2023/09/30 05:41:20;;;;;;;19.67;7.30;;;;;;;;;;4894313;29;20072;-80
2023/09/30 05:43:46;;;;;;;24.45;9.38;;;;;;;;;;4897077;29;20116;-80
2023/09/30 05:46:13;;;;;;;27.80;14.63;;;;;;;;;;4883606;29;20391;-78
2023/09/30 05:48:39;;;;;;;23.45;11.25;;;;;;;;;;4876820;29;20116;-78
2023/09/30 05:51:06;;;;;;;26.33;7.63;;;;;;;;;;4894125;29;20060;-78
2023/09/30 05:53:32;;;;;;;16.48;7.90;;;;;;;;;;4892497;29;20041;-78
2023/09/30 05:55:59;;;;;;;21.35;8.43;;;;;;;;;;4893796;29;20047;-77
2023/09/30 05:58:29;;;;;;;15.35;7.22;;;;;;;;;;4895633;29;20044;-78
2023/09/30 06:00:55;;;;;;;23.00;8.82;;;;;;;;;;4889536;29;20081;-78
2023/09/30 06:03:24;;;;;;;16.85;7.85;;;;;;;;;;4879841;29;20120;-78
2023/09/30 06:05:50;;;;;;;30.25;11.07;;;;;;;;;;4882467;29;20071;-79
2023/09/30 06:08:16;;;;;;;22.55;9.68;;;;;;;;;;4885149;29;20064;-78
2023/09/30 06:10:42;;;;;;;17.13;8.18;;;;;;;;;;4892271;29;22083;-77
2023/09/30 06:13:09;;;;;;;14.48;7.22;;;;;;;;;;4880770;29;20043;-78
2023/09/30 06:15:39;;;;;;;19.10;8.13;;;;;;;;;;4885763;29;20048;-78
2023/09/30 06:18:06;;;;;;;14.20;6.40;;;;;;;;;;4890384;29;20045;-77
2023/09/30 06:20:33;;;;;;;23.60;9.57;;;;;;;;;;4884827;29;20037;-77
2023/09/30 06:23:00;;;;;;;16.27;8.73;;;;;;;;;;4891437;29;20048;-77
2023/09/30 06:25:27;;;;;;;23.05;9.80;;;;;;;;;;4894313;29;20041;-78
2023/09/30 06:27:57;;;;;;;19.58;8.23;;;;;;;;;;4893116;29;20509;-78
2023/09/30 06:30:29;;;;;;;49.08;28.52;;;;;;;;;;4887821;29;20382;-75
2023/09/30 06:32:56;;;;;;;24.23;12.10;;;;;;;;;;4887162;29;20521;-75
2023/09/30 06:35:23;;;;;;;25.25;10.38;;;;;;;;;;4887228;29;20068;-75
2023/09/30 06:37:49;;;;;;;21.42;8.75;;;;;;;;;;4889635;29;20132;-79
2023/09/30 06:40:15;;;;;;;24.15;8.38;;;;;;;;;;4891739;29;20064;-77
2023/09/30 06:42:42;;;;;;;23.08;8.80;;;;;;;;;;4889374;29;20464;-78
2023/09/30 06:45:09;;;;;;;20.13;10.32;;;;;;;;;;4888805;29;20079;-80
2023/09/30 06:47:36;;;;;;;22.13;10.15;;;;;;;;;;4874776;29;20043;-79
2023/09/30 06:50:07;;;;;;;19.85;9.82;;;;;;;;;;4890939;29;20455;-79
2023/09/30 06:52:37;;;;;;;20.77;8.70;;;;;;;;;;4889007;29;20036;-78
2023/09/30 06:55:06;;;;;;;23.40;9.77;;;;;;;;;;4897154;29;20112;-78
2023/09/30 06:57:34;;;;;;;24.48;11.50;;;;;;;;;;4886352;29;20107;-79
2023/09/30 07:00:00;;;;;;;41.90;20.35;;;;;;;;;;4883449;29;20036;-77
2023/09/30 07:02:26;;;;;;;24.60;12.40;;;;;;;;;;4887312;29;20036;-77
2023/09/30 07:04:53;;;;;;;23.80;10.77;;;;;;;;;;4888918;29;20391;-77
2023/09/30 07:07:19;;;;;;;23.30;9.63;;;;;;;;;;4885339;29;20039;-78
2023/09/30 07:09:45;;;;;;;26.95;10.95;;;;;;;;;;4889079;29;20084;-78
2023/09/30 07:12:12;;;;;;;20.13;9.30;;;;;;;;;;4887925;29;20041;-78
2023/09/30 07:14:38;;;;;;;25.15;10.93;;;;;;;;;;4880019;29;20062;-79
2023/09/30 07:17:04;;;;;;;28.15;10.98;;;;;;;;;;4893651;29;20029;-79
2023/09/30 07:19:30;;;;;;;22.73;10.27;;;;;;;;;;4895978;29;20032;-78
2023/09/30 07:21:56;;;;;;;26.33;10.82;;;;;;;;;;4894368;29;20069;-79
2023/09/30 07:24:23;;;;;;;24.75;10.02;;;;;;;;;;4895276;29;20075;-79
2023/09/30 07:26:49;;;;;;;23.08;10.35;;;;;;;;;;4889844;29;20155;-78
2023/09/30 07:29:15;;;;;;;21.33;10.50;;;;;;;;;;4886651;29;20063;-79
2023/09/30 07:31:40;;;;;;;29.33;10.93;;;;;;;;;;4898274;29;20055;-78
2023/09/30 07:34:06;;;;;;;19.52;9.38;;;;;;;;;;4879880;29;20053;-79
2023/09/30 07:36:32;;;;;;;90.68;57.20;;;;;;;;;;4898317;29;20060;-79
2023/09/30 07:39:00;;;;;;;25.73;13.55;;;;;;;;;;4898053;29;20534;-81
2023/09/30 07:41:26;;;;;;;28.25;13.57;;;;;;;;;;4893841;29;20459;-78
2023/09/30 07:43:56;;;;;;;22.70;10.45;;;;;;;;;;4893173;29;20048;-80
2023/09/30 07:46:22;;;;;;;22.10;10.55;;;;;;;;;;4892117;29;20460;-78
2023/09/30 07:48:48;;;;;;;24.83;9.80;;;;;;;;;;4877436;29;20520;-80
2023/09/30 07:51:15;;;;;;;22.45;9.30;;;;;;;;;;4891413;29;20052;-75
2023/09/30 07:53:41;;;;;;;21.38;9.65;;;;;;;;;;4892007;29;20735;-76
2023/09/30 07:56:08;;;;;;;22.35;9.77;;;;;;;;;;4892405;29;20407;-77
2023/09/30 07:58:34;;;;;;;25.27;9.95;;;;;;;;;;4893827;29;20037;-80
2023/09/30 08:01:01;;;;;;;25.85;10.35;;;;;;;;;;4890241;29;20391;-79
2023/09/30 08:03:27;;;;;;;20.10;9.77;;;;;;;;;;4889870;29;20036;-77
2023/09/30 08:05:53;;;;;;;22.88;9.98;;;;;;;;;;4892955;29;20079;-79
2023/09/30 08:08:19;;;;;;;20.50;9.23;;;;;;;;;;4879696;29;20451;-77
2023/09/30 08:10:45;;;;;;;19.45;7.93;;;;;;;;;;4893827;29;20108;-78
2023/09/30 08:13:11;;;;;;;17.17;8.57;;;;;;;;;;4889563;29;20040;-77
2023/09/30 08:15:37;;;;;;;19.67;9.02;;;;;;;;;;4892183;29;20140;-78
2023/09/30 08:18:05;;;;;;;23.38;9.65;;;;;;;;;;4893266;29;20036;-77
2023/09/30 08:20:32;;;;;;;21.85;8.98;;;;;;;;;;4896582;29;20037;-79
2023/09/30 08:22:58;;;;;;;16.15;8.80;;;;;;;;;;4873420;29;20135;-80
2023/09/30 08:25:24;;;;;;;20.10;8.13;;;;;;;;;;4884193;29;20428;-80
2023/09/30 08:27:51;;;;;;;18.83;8.48;;;;;;;;;;4886293;29;20032;-81
2023/09/30 08:30:17;;;;;;;20.30;7.32;;;;;;;;;;4870919;29;20037;-81
2023/09/30 08:32:43;;;;;;;16.25;8.38;;;;;;;;;;4890747;29;20459;-81
2023/09/30 08:35:09;;;;;;;16.85;7.88;;;;;;;;;;4894813;29;20052;-80
2023/09/30 08:37:35;;;;;;;17.33;7.60;;;;;;;;;;4891194;29;20495;-83
2023/09/30 08:40:04;;;;;;;57.45;30.73;;;;;;;;;;4880373;29;20131;-83
2023/09/30 08:42:33;;;;;;;51.40;32.00;;;;;;;;;;4895290;29;20035;-83
2023/09/30 08:44:59;;;;;;;18.60;8.25;;;;;;;;;;4895063;29;20053;-77
2023/09/30 08:47:29;;;;;;;18.02;6.70;;;;;;;;;;4889834;29;20036;-83
2023/09/30 08:49:57;;;;;;;11.10;5.90;;;;;;;;;;4891248;29;20032;-82
2023/09/30 08:52:23;;;;;;;13.65;5.43;;;;;;;;;;4878889;29;20036;-82
2023/09/30 08:54:49;;;;;;;18.38;6.00;;;;;;;;;;4895491;29;20522;-83
2023/09/30 08:57:18;;;;;;;17.35;6.40;;;;;;;;;;4879911;29;20037;-83
2023/09/30 08:59:45;;;;;;;17.05;6.00;;;;;;;;;;4874076;29;20472;-83
2023/09/30 09:02:11;;;;;;;14.15;5.20;;;;;;;;;;4866396;29;20111;-83
2023/09/30 09:04:37;;;;;;;18.23;5.55;;;;;;;;;;4893905;29;20084;-78
2023/09/30 09:07:03;;;;;;;11.75;3.22;;;;;;;;;;4887309;29;20058;-79
2023/09/30 09:09:29;;;;;;;15.95;3.88;;;;;;;;;;4892913;29;20040;-76
2023/09/30 09:11:57;;;;;;;17.67;4.88;;;;;;;;;;4891904;29;20028;-75
2023/09/30 09:14:37;;;;;;;11.90;4.07;;;;;;;;;;4878182;29;20032;-75
2023/09/30 09:17:04;;;;;;;12.65;4.88;;;;;;;;;;4874198;29;20036;-74
2023/09/30 09:19:31;;;;;;;12.68;4.25;;;;;;;;;;4876432;29;20041;-74
2023/09/30 09:22:01;;;;;;;13.85;5.35;;;;;;;;;;4891457;29;20033;-73
2023/09/30 09:24:38;;;;;;;19.40;4.60;;;;;;;;;;4874482;29;20044;-75
2023/09/30 09:27:24;;;;;;;145.70;14.38;;;;;;;;;;4874889;29;20483;-78
2023/09/30 09:29:50;;;;;;;10.13;2.60;;;;;;;;;;4895774;29;20428;-78
2023/09/30 09:32:17;;;;;;;16.52;3.40;;;;;;;;;;4873077;29;20029;-79
2023/09/30 09:34:44;;;;;;;38.88;5.10;;;;;;;;;;4891024;29;20049;-78
2023/09/30 09:37:20;;;;;;;9.95;2.90;;;;;;;;;;4874886;29;20049;-77
2023/09/30 09:39:53;;;;;;;13.20;2.50;;;;;;;;;;4894090;29;20510;-77
2023/09/30 09:42:30;;;;;;;8.90;2.55;;;;;;;;;;4893924;29;20032;-79
2023/09/30 09:45:05;;;;;;;11.13;2.45;;;;;;;;;;4892878;29;20064;-78
2023/09/30 09:47:32;;;;;;;13.88;2.40;;;;;;;;;;4892458;29;20048;-77
2023/09/30 09:49:59;;;;;;;15.98;2.45;;;;;;;;;;4891867;29;20041;-77
2023/09/30 09:52:26;;;;;;;8.05;2.42;;;;;;;;;;4886630;29;20744;-76
2023/09/30 09:54:53;;;;;;;9.55;2.17;;;;;;;;;;4880599;29;20491;-75
2023/09/30 09:57:19;;;;;;;8.98;2.10;;;;;;;;;;4896142;29;20115;-75
2023/09/30 09:59:47;;;;;;;14.70;2.67;;;;;;;;;;4892827;29;20044;-73
2023/09/30 10:02:14;;;;;;;9.98;1.95;;;;;;;;;;4891275;29;20374;-73
2023/09/30 10:04:43;;;;;;;15.40;3.67;;;;;;;;;;4878135;29;20044;-74
2023/09/30 10:07:11;;;;;;;9.50;2.30;;;;;;;;;;4888495;29;20036;-74
2023/09/30 10:09:38;;;;;;;11.75;2.13;;;;;;;;;;4892375;29;20123;-73
2023/09/30 10:12:04;;;;;;;33.85;22.10;;;;;;;;;;4875746;29;20483;-77
2023/09/30 10:14:35;;;;;;;11.98;3.53;;;;;;;;;;4891745;29;20145;-75
2023/09/30 10:17:03;;;;;;;7.88;2.30;;;;;;;;;;4889497;29;20123;-79
2023/09/30 10:19:31;;;;;;;7.03;1.75;;;;;;;;;;4881496;29;20123;-77
2023/09/30 10:22:26;;;;;;;12.25;2.78;;;;;;;;;;4894802;29;20036;-77
2023/09/30 10:24:57;;;;;;;9.75;1.88;;;;;;;;;;4879779;29;20048;-76
2023/09/30 10:27:23;;;;;;;12.40;2.50;;;;;;;;;;4892703;29;20079;-75
2023/09/30 10:29:54;;;;;;;8.07;1.85;;;;;;;;;;4898203;29;20104;-75
2023/09/30 10:32:20;;;;;;;9.60;1.58;;;;;;;;;;4898383;29;20041;-75
2023/09/30 10:34:51;;;;;;;7.30;1.52;;;;;;;;;;4894910;29;20056;-75
2023/09/30 10:37:20;;;;;;;;;;;24.40;99.90;;;;;;4877451;29;20067;-75
2023/09/30 10:39:58;;;;;;;14.95;3.17;;;;;;;;;;4891249;29;19959;-73
2023/09/30 10:42:49;;;;;;;11.43;1.80;;;;;;;;;;4892304;29;20032;-74
2023/09/30 10:45:34;;;;;;;7.20;1.90;;;;;;;;;;4890129;29;20139;-73
2023/09/30 10:48:20;;;;;;;12.15;2.00;;;;;;;;;;4895766;29;20036;-74
2023/09/30 10:50:53;;;;;;;6.97;1.58;;;;;;;;;;4875229;29;20021;-73
2023/09/30 10:53:19;;;;;;;10.00;1.63;;;;;;;;;;4895305;29;20060;-73
2023/09/30 10:55:46;;;;;;;9.32;1.95;;;;;;;;;;4863346;29;20033;-73
2023/09/30 10:58:15;;;;;;;9.55;2.25;;;;;;;;;;4894083;29;20037;-73
2023/09/30 11:00:52;;;;;;;14.00;2.15;;;;;;;;;;4866057;29;20069;-73
2023/09/30 11:03:20;;;;;;;8.05;1.55;;;;;;;;;;4896560;29;20045;-74
2023/09/30 11:05:54;;;;;;;12.20;2.22;;;;;;;;;;4895999;29;20066;-74
2023/09/30 11:08:24;;;;;;;11.77;2.08;;;;;;;;;;4894331;29;20028;-73
2023/09/30 11:10:51;;;;;;;7.40;1.95;;;;;;;;;;4896773;29;20083;-72
2023/09/30 11:13:20;;;;;;;8.45;2.15;;;;;;;;;;4886802;29;20041;-73
2023/09/30 11:15:47;;;;;;;8.10;1.88;;;;;;;;;;4894050;29;20040;-72
2023/09/30 11:18:16;;;;;;;13.25;2.40;;;;;;;;;;4890440;29;20044;-73
2023/09/30 11:20:44;;;;;;;9.13;3.53;;;;;;;;;;4897363;29;20554;-74
2023/09/30 11:23:10;;;;;;;9.65;1.88;;;;;;;;;;4885741;29;20032;-74
2023/09/30 11:25:37;;;;;;;11.20;2.28;;;;;;;;;;4890561;29;20044;-73
2023/09/30 11:28:13;;;;;;;8.13;2.10;;;;;;;;;;4893992;29;20028;-73
2023/09/30 14:59:49;;;;;;;7.05;1.90;;;;;;;;;;3218461;29;22221;-75
2023/09/30 15:02:15;;;;;;;8.90;2.17;;;;;;;;;;4891042;29;20119;-76
2023/09/30 15:04:41;;;;;;;9.90;2.05;;;;;;;;;;4899286;29;20115;-76
2023/09/30 15:07:07;;;;;;;6.97;1.75;;;;;;;;;;4897671;29;20100;-76
2023/09/30 15:09:33;;;;;;;10.48;2.05;;;;;;;;;;4891760;29;20036;-79
2023/09/30 15:11:59;;;;;;;10.57;2.20;;;;;;;;;;4897521;29;20483;-76
2023/09/30 15:14:25;;;;;;;10.60;2.25;;;;;;;;;;4884998;29;20037;-79
2023/09/30 15:16:51;;;;;;;9.82;2.20;;;;;;;;;;4876611;29;20092;-76
2023/09/30 15:19:17;;;;;;;9.48;1.63;;;;;;;;;;4897072;29;20052;-73
2023/09/30 15:21:43;;;;;;;8.85;1.73;;;;;;;;;;4897146;29;20036;-76
2023/09/30 15:24:10;;;;;;;7.40;1.88;;;;;;;;;;4873140;29;20502;-78
2023/09/30 15:26:36;;;;;;;13.05;2.42;;;;;;;;;;4896818;29;20032;-78
2023/09/30 15:29:03;;;;;;;9.63;3.08;;;;;;;;;;4898652;29;20037;-78
2023/09/30 15:31:29;;;;;;;24.95;12.20;;;;;;;;;;4893962;29;20516;-79
2023/09/30 15:33:56;;;;;;;10.38;2.78;;;;;;;;;;4882815;29;20101;-78
2023/09/30 15:36:22;;;;;;;7.55;1.88;;;;;;;;;;4895684;29;20418;-78
2023/09/30 15:38:48;;;;;;;7.78;2.40;;;;;;;;;;4896110;29;20074;-78
2023/09/30 15:41:14;;;;;;;5.75;2.05;;;;;;;;;;4892744;29;20391;-78
2023/09/30 15:43:40;;;;;;;9.10;2.03;;;;;;;;;;4888284;29;20400;-77
2023/09/30 15:46:08;;;;;;;4.72;1.55;;;;;;;;;;4881677;29;20398;-77
2023/09/30 15:48:34;;;;;;;9.10;1.63;;;;;;;;;;4897195;29;20035;-75
2023/09/30 15:51:00;;;;;;;8.38;2.38;;;;;;;;;;4892763;29;20037;-74
2023/09/30 15:53:28;;;;;;;26.73;12.77;;;;;;;;;;4888110;29;20060;-75
2023/09/30 15:55:54;;;;;;;11.45;2.13;;;;;;;;;;4888986;29;20040;-75
2023/09/30 15:58:20;;;;;;;9.23;2.28;;;;;;;;;;4871703;29;20048;-75
2023/09/30 16:00:48;;;;;;;12.75;2.67;;;;;;;;;;4890414;29;20053;-75
2023/09/30 16:03:14;;;;;;;34.65;9.18;;;;;;;;;;4875729;29;20040;-74
2023/09/30 16:05:41;;;;;;;24.63;6.50;;;;;;;;;;4876309;29;20035;-77
2023/09/30 16:08:07;;;;;;;15.23;4.32;;;;;;;;;;4893273;29;20053;-74
2023/09/30 16:10:34;;;;;;;7.65;1.92;;;;;;;;;;4890329;29;20056;-74
2023/09/30 16:13:00;;;;;;;8.52;1.88;;;;;;;;;;4876348;29;20037;-75
2023/09/30 16:15:26;;;;;;;8.88;2.67;;;;;;;;;;4893297;29;20044;-72
2023/09/30 16:17:52;;;;;;;9.68;2.65;;;;;;;;;;4894757;29;20504;-78
2023/09/30 16:20:23;;;;;;;12.02;2.78;;;;;;;;;;4873301;29;20395;-76
2023/09/30 16:22:50;;;;;;;7.75;1.90;;;;;;;;;;4883617;29;20036;-76
2023/09/30 16:25:17;;;;;;;5.57;1.67;;;;;;;;;;4893805;29;21462;-76
2023/09/30 16:27:43;;;;;;;8.23;1.75;;;;;;;;;;4895586;29;20482;-79
2023/09/30 16:30:09;;;;;;;11.88;3.03;;;;;;;;;;4896401;29;20040;-79
2023/09/30 16:32:39;;;;;;;9.02;1.60;;;;;;;;;;4894500;29;20096;-79
2023/09/30 16:35:07;;;;;;;8.13;1.90;;;;;;;;;;4886717;29;20045;-79
2023/09/30 16:37:33;;;;;;;9.88;2.38;;;;;;;;;;4895462;29;20037;-80
2023/09/30 16:39:59;;;;;;;7.20;1.95;;;;;;;;;;4889792;29;20085;-79
2023/09/30 16:42:25;;;;;;;8.38;2.10;;;;;;;;;;4889262;29;20173;-78
2023/09/30 16:44:51;;;;;;;7.38;2.05;;;;;;;;;;4884159;29;20403;-77
2023/09/30 16:47:17;;;;;;;11.80;2.60;;;;;;;;;;4894237;29;20604;-78
2023/09/30 16:49:45;;;;;;;9.15;2.33;;;;;;;;;;4895251;29;20056;-78
2023/09/30 16:52:11;;;;;;;5.15;2.03;;;;;;;;;;4878918;29;20037;-77
2023/09/30 16:54:37;;;;;;;7.90;2.40;;;;;;;;;;4875215;29;20043;-77
2023/09/30 16:57:04;;;;;;;8.35;2.10;;;;;;;;;;4878567;29;20036;-77
2023/09/30 16:59:32;;;;;;;9.40;2.13;;;;;;;;;;4893586;29;20513;-77
2023/09/30 17:01:58;;;;;;;10.57;3.35;;;;;;;;;;4892162;29;20044;-77
2023/09/30 17:04:24;;;;;;;7.57;2.17;;;;;;;;;;4894654;29;20029;-77
2023/09/30 17:06:50;;;;;;;11.50;2.05;;;;;;;;;;4890845;29;20047;-78
2023/09/30 17:09:16;;;;;;;11.18;2.85;;;;;;;;;;4894276;29;20039;-78
2023/09/30 17:11:43;;;;;;;5.25;2.95;;;;;;;;;;4886977;29;20513;-78
2023/09/30 17:14:09;;;;;;;9.00;3.35;;;;;;;;;;4895641;29;20096;-78
2023/09/30 17:16:35;;;;;;;9.40;3.22;;;;;;;;;;4894016;29;20036;-78
2023/09/30 17:19:01;;;;;;;16.58;6.95;;;;;;;;;;4894402;29;20390;-78
2023/09/30 17:21:28;;;;;;;16.67;6.72;;;;;;;;;;4890229;29;20043;-78
2023/09/30 17:23:55;;;;;;;16.20;7.50;;;;;;;;;;4878010;29;20379;-77
2023/09/30 17:26:22;;;;;;;19.48;7.00;;;;;;;;;;4890931;29;20143;-75
2023/09/30 17:28:49;;;;;;;11.90;4.78;;;;;;;;;;4891135;29;20053;-79
2023/09/30 17:31:15;;;;;;;20.38;10.45;;;;;;;;;;4892377;29;20028;-80
2023/09/30 17:33:41;;;;;;;19.65;9.73;;;;;;;;;;4890558;29;20069;-77
2023/09/30 17:36:07;;;;;;;20.65;10.85;;;;;;;;;;4894339;29;20115;-78
2023/09/30 17:38:34;;;;;;;10.85;3.50;;;;;;;;;;4889744;29;20246;-77
2023/09/30 17:41:01;;;;;;;6.90;2.65;;;;;;;;;;4888876;29;20084;-77
2023/09/30 17:43:27;;;;;;;9.00;2.05;;;;;;;;;;4884838;29;20064;-78
2023/09/30 17:45:54;;;;;;;6.18;1.60;;;;;;;;;;4889641;29;20475;-77
2023/09/30 17:48:21;;;;;;;7.70;2.67;;;;;;;;;;4890973;29;20333;-77
2023/09/30 17:50:48;;;;;;;9.00;2.50;;;;;;;;;;4895596;29;20039;-77
2023/09/30 17:53:14;;;;;;;9.43;2.72;;;;;;;;;;4886846;29;20048;-77
2023/09/30 17:55:40;;;;;;;11.60;3.35;;;;;;;;;;4891256;29;20063;-76
2023/09/30 17:58:06;;;;;;;12.13;2.95;;;;;;;;;;4892851;29;20042;-76
2023/09/30 18:00:35;;;;;;;8.23;3.63;;;;;;;;;;4892506;29;20053;-75